Latest Coastal Weather Observations for St Helens

IDT60701

Issued at 11:11 am EDT Thursday 5 March 2015 (issued every 10 minutes, with the page automatically refreshed every 10 minutes)

About coastal observations | Map of coastal stations | Coastal observations for TAS | Marine services | Other Formats
Station Details ID: 092120 Name: ST HELENS AERODROME Lat: -41.34 Lon: 148.28 Height: 48.0 m
Data from the previous 72 hours. | See also: Recent months at St Helens
Date/Time
EDT
Temp

°C
Wind Pressure Rain
since 9am
mm
Weather Cloud Vis
km
Sea
Height
m
Swell
Dir
 
Speed
knots
Gust
knots
hPa Trend Height
m
Period
s
Dir
05/11:00am 13.9 SW 19 32 1006.0 - 0.0 - - 10 - - - -
05/10:30am 13.3 SW 18 35 1005.6 - 0.0 - - 10 - - - -
05/10:00am 13.1 SW 16 29 1005.3 - 0.0 - - 10 - - - -
05/09:30am 12.5 SSW 15 29 1004.8 - 0.0 - Partly cloudy 10 - - - -
05/09:16am 12.2 SSW 15 32 1004.4 - 0.0 - Partly cloudy 10 - - - -
05/09:00am 12.3 SW 12 22 1004.2 - 0.8 Fine Partly cloudy 30 - - - -
05/08:30am 11.6 SSW 13 24 1003.5 - 0.8 - - 10 - - - -
05/08:00am 10.9 SW 13 22 1002.6 - 0.8 - - 10 - - - -
05/07:30am 10.4 SW 9 16 1001.8 - 0.8 - - 10 - - - -
05/07:00am 10.1 SW 6 15 1000.7 - 0.8 - - 10 - - - -
05/06:30am 10.2 SW 10 18 999.5 - 0.8 - Partly cloudy 10 - - - -
05/06:00am 9.4 SW 13 28 998.7 - 0.8 Fine Partly cloudy 25 - - - -
05/05:52am 9.3 SW 16 28 998.7 - 0.8 - Partly cloudy 10 - - - -
05/05:37am 9.7 SW 16 30 999.0 - 0.6 - Partly cloudy 5 - - - -
05/05:31am 10.5 SW 17 30 998.7 - 0.0 - Partly cloudy 9 - - - -
05/05:30am 10.8 SW 17 26 998.7 - 0.0 - Partly cloudy 10 - - - -
05/05:29am 11.0 SW 18 25 998.5 - 0.0 - Partly cloudy 10 - - - -
05/05:00am 13.0 WSW 7 15 997.1 - 0.0 - - 10 - - - -
05/04:30am 12.9 WSW 6 10 996.4 - 0.0 - - 10 - - - -
05/04:00am 12.9 WSW 5 8 996.4 - 0.0 - - 10 - - - -
05/03:30am 13.0 W 5 9 996.0 - 0.0 - - 10 - - - -
05/03:00am 13.8 WNW 6 13 996.1 - 0.0 - Mostly clear 10 - - - -
05/02:30am 13.8 NW 7 10 996.6 - 0.0 - - 10 - - - -
05/02:00am 13.9 WNW 6 12 996.8 - 0.0 - Partly cloudy 10 - - - -
05/01:30am 14.9 W 6 13 997.5 - 0.0 - Partly cloudy 10 - - - -
05/01:00am 15.5 W 8 17 997.3 - 0.0 - Partly cloudy 10 - - - -
05/12:30am 15.7 W 8 14 997.3 - 0.0 - - 10 - - - -
05/12:00am 16.2 WNW 9 16 997.6 - 0.0 - Cloudy 10 - - - -
 
Date/Time
EDT
Temp

°C
Wind Pressure Rain
since 9am
mm
Weather Cloud Vis
km
Sea
Height
m
Swell
Dir
 
Speed
knots
Gust
knots
hPa Trend Height
m
Period
s
Dir
04/11:30pm 16.2 WNW 7 11 998.5 - 0.0 - Partly cloudy 10 - - - -
04/11:00pm 16.5 WNW 10 17 998.8 - 0.0 - Partly cloudy 10 - - - -
04/10:30pm 16.4 WNW 12 21 999.6 - 0.0 - Partly cloudy 10 - - - -
04/10:00pm 17.0 W 8 19 1000.0 - 0.0 - Partly cloudy 10 - - - -
04/09:30pm 17.2 W 9 21 1000.3 - 0.0 - Partly cloudy 10 - - - -
04/09:00pm 17.4 WNW 10 22 1000.2 - 0.0 - Mostly cloudy 10 - - - -
04/08:30pm 17.6 WNW 10 19 1000.2 - 0.0 - Partly cloudy 10 - - - -
04/08:00pm 17.9 W 9 19 1000.3 - 0.0 - Partly cloudy 10 - - - -
04/07:30pm 18.1 WSW 10 27 1000.6 - 0.0 - Partly cloudy 10 - - - -
04/07:00pm 18.5 W 11 19 1001.0 - 0.0 - Partly cloudy 10 - - - -
04/06:30pm 18.7 W 11 23 1001.2 - 0.0 - Partly cloudy 10 - - - -
04/06:00pm 18.8 W 11 22 1001.0 - 0.0 - Mostly cloudy 10 - - - -
04/05:30pm 19.1 W 12 24 1001.3 - 0.0 - Partly cloudy 10 - - - -
04/05:00pm 20.0 W 12 29 1001.1 - 0.0 - - 10 - - - -
04/04:30pm 20.4 W 12 24 1001.3 - 0.0 - Partly cloudy 10 - - - -
04/04:00pm 20.7 W 15 29 1001.5 - 0.0 - Partly cloudy 10 - - - -
04/03:59pm 20.7 W 15 29 1001.5 - 0.0 - Partly cloudy 10 - - - -
04/03:30pm 21.0 WNW 12 24 1002.4 - 0.0 - Partly cloudy 10 - - - -
04/03:00pm 21.2 W 13 27 1002.7 - 0.0 - Mostly clear 10 - - - -
04/02:30pm 21.6 W 10 25 1003.2 - 0.0 - Partly cloudy 10 - - - -
04/02:00pm 21.3 WNW 13 25 1003.1 - 0.0 - Partly cloudy 10 - - - -
04/01:30pm 21.1 W 9 20 1003.8 - 0.0 - Partly cloudy 10 - - - -
04/01:00pm 21.1 W 10 21 1004.2 - 0.0 - Partly cloudy 10 - - - -
04/12:30pm 20.9 W 10 18 1004.6 - 0.0 - - 10 - - - -
04/12:00pm 20.2 W 10 20 1005.2 - 0.0 - - 10 - - - -
04/11:30am 19.7 W 11 21 1005.7 - 0.0 - Partly cloudy 10 - - - -
04/11:00am 19.0 W 11 22 1006.2 - 0.0 - Partly cloudy 10 - - - -
04/10:30am 18.6 W 11 25 1006.4 - 0.0 - - 10 - - - -
04/10:00am 17.8 W 11 21 1006.7 - 0.0 - Partly cloudy 10 - - - -
04/09:30am 17.2 W 11 23 1006.7 - 0.0 - - 10 - - - -
04/09:00am 16.3 W 13 22 1007.3 - 0.0 Haze Partly cloudy 20 - - - -
04/08:30am 15.8 WNW 10 20 1007.2 - 0.0 - Partly cloudy 10 - - - -
04/08:00am 15.9 WNW 8 17 1007.5 - 0.0 - Partly cloudy 10 - - - -
04/07:30am 15.4 W 9 16 1007.7 - 0.0 - Partly cloudy 10 - - - -
04/07:00am 14.9 WNW 9 18 1007.4 - 0.0 - Partly cloudy 10 - - - -
04/06:30am 14.3 WNW 8 18 1007.4 - 0.0 - - 10 - - - -
04/06:00am 14.2 W 8 14 1007.6 - 0.0 Fine Partly cloudy 25 - - - -
04/05:30am 14.5 NW 13 21 1007.7 - 0.0 - - 10 - - - -
04/05:00am 14.6 WNW 10 17 1008.0 - 0.0 - - 10 - - - -
04/04:30am 14.7 WNW 10 18 1008.2 - 0.0 - - 10 - - - -
04/04:00am 14.8 WNW 11 20 1008.6 - 0.0 - - 10 - - - -
04/03:30am 14.6 WNW 9 18 1008.8 - 0.0 - Partly cloudy 10 - - - -
04/03:00am 14.5 NW 9 15 1009.0 - 0.0 - Mostly cloudy 10 - - - -
04/02:30am 14.5 NW 9 16 1009.6 - 0.0 - Partly cloudy 10 - - - -
04/02:00am 14.0 WNW 7 11 1010.1 - 0.0 - - 10 - - - -
04/01:30am 13.9 NW 6 10 1010.5 - 0.0 - - 10 - - - -
04/01:00am 14.1 W 6 11 1010.8 - 0.0 - - 10 - - - -
04/12:30am 14.4 WNW 7 13 1010.8 - 0.0 - - 10 - - - -
04/12:00am 14.3 NW 5 8 1010.9 - 0.0 - - 10 - - - -
 
Date/Time
EDT
Temp

°C
Wind Pressure Rain
since 9am
mm
Weather Cloud Vis
km
Sea
Height
m
Swell
Dir
 
Speed
knots
Gust
knots
hPa Trend Height
m
Period
s
Dir
03/11:30pm 14.7 WNW 5 8 1011.1 - 0.0 - - 10 - - - -
03/11:00pm 15.4 WNW 9 15 1011.2 - 0.0 - - 10 - - - -
03/10:30pm 15.5 WNW 8 14 1011.3 - 0.0 - - 10 - - - -
03/10:00pm 15.8 WNW 10 18 1011.4 - 0.0 - - 10 - - - -
03/09:30pm 16.2 W 9 18 1011.4 - 0.0 - - 10 - - - -
03/09:00pm 16.3 W 8 14 1011.0 - 0.0 - - 10 - - - -
03/08:30pm 16.6 W 7 15 1011.1 - 0.0 - - 10 - - - -
03/08:00pm 16.9 WNW 9 16 1011.1 - 0.0 - - 10 - - - -
03/07:30pm 17.6 WNW 9 15 1011.0 - 0.0 - - 10 - - - -
03/07:00pm 18.6 WNW 9 18 1011.0 - 0.0 - - 10 - - - -
03/06:30pm 19.4 NW 11 19 1010.9 - 0.0 - - 10 - - - -
03/06:00pm 19.9 WNW 9 19 1010.8 - 0.0 - - 10 - - - -
03/05:30pm 19.7 W 7 17 1011.0 - 0.0 - Partly cloudy 10 - - - -
03/05:00pm 19.6 SSW 5 8 1011.1 - 0.0 - Partly cloudy 10 - - - -
03/04:30pm 20.6 SW 6 9 1011.2 - 0.0 - Partly cloudy 10 - - - -
03/04:00pm 21.3 S 4 7 1011.4 - 0.0 - Partly cloudy 10 - - - -
03/03:30pm 20.5 E 10 14 1011.8 - 0.0 - Partly cloudy 10 - - - -
03/03:00pm 19.7 E 11 18 1012.4 - 0.0 - Mostly cloudy 10 - - - -
03/02:30pm 20.4 E 14 18 1013.0 - 0.0 - Partly cloudy 10 - - - -
03/02:00pm 20.6 ENE 14 19 1013.2 - 0.0 - - 10 - - - -
03/01:30pm 20.3 ENE 12 15 1013.5 - 0.0 - Partly cloudy 10 - - - -
03/01:00pm 20.6 ENE 11 14 1013.9 - 0.0 - Partly cloudy 10 - - - -
03/12:30pm 19.6 ENE 11 14 1014.0 - 0.0 - Partly cloudy 10 - - - -
03/12:00pm 20.3 NNE 5 10 1014.3 - 0.0 - - 10 - - - -
03/11:30am 19.2 N 4 6 1014.7 - 0.0 - - 10 - - - -
03/11:00am 18.5 NNW 4 6 1014.9 - 0.0 - - 10 - - - -
03/10:30am 17.2 NW 4 6 1014.9 - 0.0 - - 10 - - - -
03/10:00am 15.9 NNW 5 7 1014.8 - 0.0 - - 10 - - - -
03/09:30am 14.3 NNW 5 7 1014.9 - 0.0 - - 10 - - - -
03/09:00am 12.8 NNW 5 7 1014.9 - 0.0 Fine Partly cloudy 30 - - - -
03/08:30am 11.8 N 6 7 1014.9 - 0.0 - - 10 - - - -
03/08:00am 10.5 NNW 5 7 1014.6 - 0.0 - - 10 - - - -
03/07:30am 10.4 NNW 5 8 1014.0 - 0.0 - - 10 - - - -
03/07:00am 10.6 NNW 5 8 1013.8 - 0.0 - - 10 - - - -
03/06:30am 10.3 NNW 6 9 1013.2 - 0.0 - - 10 - - - -
03/06:00am 10.7 NNW 6 7 1013.0 - 0.0 Fine Partly cloudy 25 - - - -
03/05:30am 11.2 NNW 5 6 1013.0 - 0.0 - - 10 - - - -
03/05:00am 11.4 NNW 1 6 1012.7 - 0.0 - - 10 - - - -
03/04:30am 12.1 CALM 0 0 1012.5 - 0.0 - - 10 - - - -
03/04:00am 12.5 CALM 0 3 1012.5 - 0.0 - - 10 - - - -
03/03:30am 13.5 W 4 9 1012.3 - 0.0 - - 10 - - - -
03/03:00am 14.1 NNW 3 6 1012.6 - 0.0 - - 10 - - - -
03/02:30am 14.3 WNW 6 10 1012.8 - 0.0 - - 10 - - - -
03/02:00am 14.3 W 4 8 1013.2 - 0.0 - - 10 - - - -
03/01:30am 14.7 WNW 8 13 1013.3 - 0.0 - - 10 - - - -
03/01:00am 14.9 NW 8 13 1013.6 - 0.0 - - 10 - - - -
03/12:30am 15.0 NW 8 11 1014.2 - 0.0 - - 10 - - - -
03/12:00am 15.4 NW 8 12 1014.6 - 0.0 - Mostly clear 10 - - - -
 
Date/Time
EDT
Temp

°C
Wind Pressure Rain
since 9am
mm
Weather Cloud Vis
km
Sea
Height
m
Swell
Dir
 
Speed
knots
Gust
knots
hPa Trend Height
m
Period
s
Dir
02/11:30pm 15.2 WNW 5 7 1014.5 - 0.0 - - 10 - - - -
02/11:00pm 15.3 NW 8 15 1014.2 - 0.0 - - 10 - - - -
02/10:30pm 15.6 WNW 10 16 1014.3 - 0.0 - - 10 - - - -
02/10:00pm 15.5 WNW 4 6 1014.6 - 0.0 - Partly cloudy 10 - - - -
02/09:30pm 15.7 NW 6 9 1014.4 - 0.0 - - 10 - - - -
02/09:00pm 16.2 N 10 13 1013.9 - 0.0 - Mostly clear 10 - - - -
02/08:30pm 16.5 NNW 11 17 1014.0 - 0.0 - - 10 - - - -
02/08:00pm 16.6 NNW 11 20 1013.6 - 0.0 - - 10 - - - -
02/07:30pm 17.0 NNW 10 15 1013.6 - 0.0 - - 10 - - - -
02/07:00pm 17.3 NNW 9 15 1013.6 - 0.0 - - 10 - - - -
02/06:30pm 17.8 N 10 18 1013.8 - 0.0 - - 10 - - - -
02/06:00pm 18.1 NW 7 13 1013.9 - 0.0 - - 10 - - - -
02/05:30pm 18.6 NNW 7 11 1013.6 - 0.0 - - 10 - - - -
02/05:00pm 19.0 NNW 7 10 1014.0 - 0.0 - Partly cloudy 10 - - - -
02/04:30pm 19.6 WNW 9 15 1014.4 - 0.0 - - 10 - - - -
02/04:00pm 20.2 NNW 8 19 1014.4 - 0.0 - Partly cloudy 10 - - - -
02/03:30pm 19.3 N 12 18 1014.6 - 0.0 - Partly cloudy 10 - - - -
02/03:00pm 19.3 NNE 10 17 1015.2 - 0.0 - Mostly cloudy 10 - - - -
02/02:30pm 18.6 NNE 10 14 1015.9 - 0.0 - Partly cloudy 10 - - - -
02/02:07pm 17.9 NE 10 15 1016.5 - 0.0 - Partly cloudy 10 - - - -
02/02:00pm 18.1 NE 10 15 1016.5 - 0.0 - Partly cloudy 10 - - - -
02/01:41pm 18.1 NNE 9 13 1016.6 - 0.0 - Partly cloudy 10 - - - -
02/01:30pm 17.1 NNE 9 13 1016.7 - 0.0 - Partly cloudy 10 - - - -
02/01:00pm 17.1 NNE 10 14 1017.4 - 0.0 - Partly cloudy 10 - - - -
02/12:30pm 17.3 NE 11 15 1018.0 - 0.0 - Partly cloudy 10 - - - -
02/12:00pm 17.4 N 7 11 1018.7 - 0.0 - Cloudy 10 - - - -
02/11:30am 16.2 NNE 6 8 1019.0 - 0.0 - Partly cloudy 10 - - - -

Other Formats:

Comma delimited format used in spreadsheet applications
http://www.bom.gov.au/fwo/IDT60701/IDT60701.95981.axf

JavaScript Object Notation format (JSON) in row-major order
http://www.bom.gov.au/fwo/IDT60701/IDT60701.95981.json